Time,TemperatureF,DewpointF,PressureIn,WindDirection,WindDirectionDegrees,WindSpeedMPH,WindSpeedGustMPH,Humidity,HourlyPrecipIn,Conditions,Clouds,dailyrainin,SoftwareType,DateUTC
2013-08-16 00:01:00,56.2,53.0,30.05,WSW,241,0.0,0.0,89,0.00,,---,0.00,VWS V14.01,2013-08-16 05:01:00,
2013-08-16 00:11:00,56.0,53.1,30.05,WSW,241,0.0,0.0,90,0.00,,---,0.00,VWS V14.01,2013-08-16 05:11:00,
2013-08-16 00:21:00,55.7,52.5,30.05,WSW,241,0.0,0.0,89,0.00,,---,0.00,VWS V14.01,2013-08-16 05:21:00,
2013-08-16 00:26:00,55.6,52.4,30.05,WSW,241,0.0,0.0,89,0.00,,---,0.00,VWS V14.01,2013-08-16 05:26:00,
2013-08-16 00:31:00,55.3,52.4,30.05,WSW,241,0.0,0.0,90,0.00,,---,0.00,VWS V14.01,2013-08-16 05:31:00,
2013-08-16 00:36:00,55.0,52.1,30.05,WSW,241,0.0,0.0,90,0.00,,---,0.00,VWS V14.01,2013-08-16 05:36:00,
2013-08-16 00:41:00,54.8,51.6,30.05,WSW,241,0.0,0.0,89,0.00,,---,0.00,VWS V14.01,2013-08-16 05:41:00,
2013-08-16 00:46:00,54.5,51.3,30.05,WSW,241,0.0,0.0,89,0.00,,---,0.00,VWS V14.01,2013-08-16 05:46:00,
2013-08-16 00:51:00,54.2,51.0,30.05,WSW,241,0.0,0.0,89,0.00,,---,0.00,VWS V14.01,2013-08-16 05:51:00,
2013-08-16 01:01:00,54.5,51.9,30.05,WSW,241,0.0,0.0,91,0.00,,---,0.00,VWS V14.01,2013-08-16 06:01:00,
2013-08-16 01:06:00,55.1,52.5,30.05,WSW,241,0.0,0.0,91,0.00,,---,0.00,VWS V14.01,2013-08-16 06:06:00,
2013-08-16 01:16:00,55.0,52.4,30.04,WSW,241,0.0,0.0,91,0.00,,---,0.00,VWS V14.01,2013-08-16 06:16:00,
2013-08-16 01:21:00,54.8,52.2,30.04,WSW,240,0.0,0.0,91,0.00,,---,0.00,VWS V14.01,2013-08-16 06:21:00,
2013-08-16 01:26:00,54.5,51.9,30.04,WSW,240,0.0,0.0,91,0.00,,---,0.00,VWS V14.01,2013-08-16 06:26:00,
2013-08-16 01:36:00,54.4,52.1,30.04,WSW,240,0.0,0.0,92,0.00,,---,0.00,VWS V14.01,2013-08-16 06:36:00,
2013-08-16 01:41:00,54.4,52.1,30.04,WSW,242,0.0,0.0,92,0.00,,---,0.00,VWS V14.01,2013-08-16 06:41:00,
2013-08-16 01:46:00,54.5,52.2,30.04,WSW,242,0.0,0.0,92,0.00,,---,0.00,VWS V14.01,2013-08-16 06:46:00,
2013-08-16 01:51:00,54.7,52.4,30.04,WSW,242,0.0,0.0,92,0.00,,---,0.00,VWS V14.01,2013-08-16 06:51:00,
2013-08-16 02:01:00,54.7,52.4,30.04,WSW,242,0.0,0.0,92,0.00,,---,0.00,VWS V14.01,2013-08-16 07:01:00,
2013-08-16 02:11:00,54.4,52.1,30.03,WSW,242,0.0,0.0,92,0.00,,---,0.00,VWS V14.01,2013-08-16 07:11:00,
2013-08-16 02:16:00,54.2,51.9,30.03,WSW,242,0.0,0.0,92,0.00,,---,0.00,VWS V14.01,2013-08-16 07:16:00,
2013-08-16 02:21:00,53.9,51.6,30.04,WSW,242,0.0,0.0,92,0.00,,---,0.00,VWS V14.01,2013-08-16 07:21:00,
2013-08-16 02:31:00,54.1,52.1,30.04,WSW,242,0.0,0.0,93,0.00,,---,0.00,VWS V14.01,2013-08-16 07:31:00,
2013-08-16 02:41:00,54.1,52.1,30.04,WSW,242,0.0,0.0,93,0.00,,---,0.00,VWS V14.01,2013-08-16 07:41:00,
2013-08-16 02:46:00,54.1,52.1,30.04,WSW,242,0.0,0.0,93,0.00,,---,0.00,VWS V14.01,2013-08-16 07:46:00,
2013-08-16 02:56:00,53.9,51.9,30.04,WSW,244,0.0,0.0,93,0.00,,---,0.00,VWS V14.01,2013-08-16 07:56:00,
2013-08-16 03:06:00,54.1,52.1,30.04,WSW,244,0.0,0.0,93,0.00,,---,0.00,VWS V14.01,2013-08-16 08:06:00,
2013-08-16 03:16:00,53.8,51.8,30.04,WSW,244,0.0,0.0,93,0.00,,---,0.00,VWS V14.01,2013-08-16 08:16:00,
2013-08-16 03:21:00,53.2,50.9,30.05,WSW,244,0.0,0.0,92,0.00,,---,0.00,VWS V14.01,2013-08-16 08:21:00,
2013-08-16 03:26:00,52.6,50.3,30.05,WSW,244,0.0,0.0,92,0.00,,---,0.00,VWS V14.01,2013-08-16 08:26:00,
2013-08-16 03:31:00,51.7,49.5,30.05,WSW,244,0.0,0.0,92,0.00,,---,0.00,VWS V14.01,2013-08-16 08:31:00,
2013-08-16 03:36:00,51.1,48.9,30.05,WSW,244,0.0,0.0,92,0.00,,---,0.00,VWS V14.01,2013-08-16 08:36:00,
2013-08-16 03:41:00,50.7,48.5,30.05,WSW,244,0.0,0.0,92,0.00,,---,0.00,VWS V14.01,2013-08-16 08:41:00,
2013-08-16 03:46:00,50.4,48.2,30.05,WSW,244,0.0,0.0,92,0.00,,---,0.00,VWS V14.01,2013-08-16 08:46:00,
2013-08-16 03:51:00,50.2,48.0,30.05,WSW,244,0.0,0.0,92,0.00,,---,0.00,VWS V14.01,2013-08-16 08:51:00,
2013-08-16 03:56:00,50.1,47.9,30.05,WSW,244,0.0,0.0,92,0.00,,---,0.00,VWS V14.01,2013-08-16 08:56:00,
2013-08-16 04:01:00,49.8,47.6,30.05,WSW,244,0.0,0.0,92,0.00,,---,0.00,VWS V14.01,2013-08-16 09:01:00,
2013-08-16 04:11:00,50.5,48.6,30.05,WSW,244,0.0,0.0,93,0.00,,---,0.00,VWS V14.01,2013-08-16 09:11:00,
2013-08-16 04:16:00,50.8,48.8,30.05,WSW,244,0.0,0.0,93,0.00,,---,0.00,VWS V14.01,2013-08-16 09:16:00,
2013-08-16 04:26:00,50.7,48.8,30.06,WSW,244,0.0,0.0,93,0.00,,---,0.00,VWS V14.01,2013-08-16 09:26:00,
2013-08-16 04:31:00,50.7,49.0,30.06,WSW,245,0.0,0.0,94,0.00,,---,0.00,VWS V14.01,2013-08-16 09:31:00,
2013-08-16 04:36:00,51.3,49.6,30.06,WSW,245,0.0,0.0,94,0.00,,---,0.00,VWS V14.01,2013-08-16 09:36:00,
2013-08-16 04:41:00,51.3,49.3,30.06,WSW,245,0.0,0.0,93,0.00,,---,0.00,VWS V14.01,2013-08-16 09:41:00,
2013-08-16 04:51:00,50.2,48.3,30.06,WSW,245,0.0,0.0,93,0.00,,---,0.00,VWS V14.01,2013-08-16 09:51:00,
2013-08-16 04:56:00,49.8,47.9,30.06,WSW,245,0.0,0.0,93,0.00,,---,0.00,VWS V14.01,2013-08-16 09:56:00,
2013-08-16 05:06:00,49.2,47.3,30.06,WSW,245,0.0,0.0,93,0.00,,---,0.00,VWS V14.01,2013-08-16 10:06:00,
2013-08-16 05:11:00,49.6,48.0,30.06,WSW,246,0.0,0.0,94,0.00,,---,0.00,VWS V14.01,2013-08-16 10:11:00,
2013-08-16 05:16:00,50.1,48.4,30.06,WSW,249,0.0,0.0,94,0.00,,---,0.00,VWS V14.01,2013-08-16 10:16:00,
2013-08-16 05:21:00,50.5,48.8,30.06,WSW,251,0.0,0.0,94,0.00,,---,0.00,VWS V14.01,2013-08-16 10:21:00,
2013-08-16 05:26:00,50.7,49.0,30.06,WSW,251,0.0,0.0,94,0.00,,---,0.00,VWS V14.01,2013-08-16 10:26:00,
2013-08-16 05:36:00,50.8,49.1,30.07,WSW,252,0.0,0.0,94,0.00,,---,0.00,VWS V14.01,2013-08-16 10:36:00,
2013-08-16 05:41:00,51.0,49.3,30.06,WSW,252,0.0,0.0,94,0.00,,---,0.00,VWS V14.01,2013-08-16 10:41:00,
2013-08-16 05:46:00,51.0,49.3,30.07,WSW,254,0.0,0.0,94,0.00,,---,0.00,VWS V14.01,2013-08-16 10:46:00,
2013-08-16 05:51:00,51.0,49.3,30.07,WSW,254,0.0,0.0,94,0.00,,---,0.00,VWS V14.01,2013-08-16 10:51:00,
2013-08-16 06:01:00,51.0,49.3,30.07,WSW,256,0.0,0.0,94,0.00,,---,0.00,VWS V14.01,2013-08-16 11:01:00,
2013-08-16 06:06:00,50.8,49.1,30.07,WSW,256,0.0,0.0,94,0.00,,---,0.00,VWS V14.01,2013-08-16 11:06:00,
2013-08-16 06:16:00,50.4,48.7,30.07,WSW,256,0.0,0.0,94,0.00,,---,0.00,VWS V14.01,2013-08-16 11:16:00,
2013-08-16 06:26:00,50.1,48.4,30.08,West,259,0.0,0.0,94,0.00,,---,0.00,VWS V14.01,2013-08-16 11:26:00,
2013-08-16 06:31:00,49.9,48.5,30.08,West,260,0.0,0.0,95,0.00,,---,0.00,VWS V14.01,2013-08-16 11:31:00,
2013-08-16 06:36:00,49.9,48.5,30.08,West,260,0.0,0.0,95,0.00,,---,0.00,VWS V14.01,2013-08-16 11:36:00,
2013-08-16 06:41:00,50.1,48.7,30.08,West,259,0.0,0.0,95,0.00,,---,0.00,VWS V14.01,2013-08-16 11:41:00,
2013-08-16 06:51:00,50.5,49.1,30.09,West,260,0.0,0.0,95,0.00,,---,0.00,VWS V14.01,2013-08-16 11:51:00,
2013-08-16 06:56:00,50.7,49.3,30.09,WSW,255,0.0,0.0,95,0.00,,---,0.00,VWS V14.01,2013-08-16 11:56:00,
2013-08-16 07:01:00,50.5,49.1,30.09,WSW,257,0.0,0.0,95,0.00,,---,0.00,VWS V14.01,2013-08-16 12:01:00,
2013-08-16 07:11:00,50.7,49.3,30.10,WSW,258,0.0,0.0,95,0.00,,---,0.00,VWS V14.01,2013-08-16 12:11:00,
2013-08-16 07:16:00,51.0,49.6,30.10,WSW,254,0.0,0.0,95,0.00,,---,0.00,VWS V14.01,2013-08-16 12:16:00,
2013-08-16 07:21:00,51.4,50.3,30.10,WSW,255,0.0,0.0,96,0.00,,---,0.00,VWS V14.01,2013-08-16 12:21:00,
2013-08-16 07:26:00,51.7,50.6,30.10,WSW,255,0.0,0.0,96,0.00,,---,0.00,VWS V14.01,2013-08-16 12:26:00,
2013-08-16 07:31:00,52.0,50.9,30.10,WSW,255,0.0,0.0,96,0.00,,---,0.00,VWS V14.01,2013-08-16 12:31:00,
2013-08-16 07:41:00,52.8,51.7,30.10,WSW,256,0.0,0.0,96,0.00,,---,0.00,VWS V14.01,2013-08-16 12:41:00,
2013-08-16 07:46:00,53.3,52.2,30.10,WSW,256,0.0,0.0,96,0.00,,---,0.00,VWS V14.01,2013-08-16 12:46:00,
2013-08-16 07:51:00,53.8,52.7,30.10,WSW,256,0.0,0.0,96,0.00,,---,0.00,VWS V14.01,2013-08-16 12:51:00,
2013-08-16 07:56:00,54.4,53.3,30.10,WSW,256,0.0,0.0,96,0.00,,---,0.00,VWS V14.01,2013-08-16 12:56:00,
2013-08-16 08:01:00,55.0,53.9,30.10,WSW,256,0.0,0.0,96,0.00,,---,0.00,VWS V14.01,2013-08-16 13:01:00,
2013-08-16 08:11:00,56.5,55.4,30.11,WSW,247,0.0,0.0,96,0.00,,---,0.00,VWS V14.01,2013-08-16 13:11:00,
2013-08-16 08:21:00,57.8,56.7,30.10,WSW,240,0.0,0.0,96,0.00,,---,0.00,VWS V14.01,2013-08-16 13:21:00,
2013-08-16 08:26:00,58.4,57.3,30.10,WSW,240,0.0,0.0,96,0.00,,---,0.00,VWS V14.01,2013-08-16 13:26:00,
2013-08-16 08:31:00,58.9,57.8,30.10,WSW,240,0.0,0.0,96,0.00,,---,0.00,VWS V14.01,2013-08-16 13:31:00,
2013-08-16 08:41:00,60.7,59.6,30.10,WSW,244,0.0,0.0,96,0.00,,---,0.00,VWS V14.01,2013-08-16 13:41:00,
2013-08-16 08:51:00,61.6,59.9,30.11,SW,221,0.0,1.0,94,0.00,,---,0.00,VWS V14.01,2013-08-16 13:51:00,
2013-08-16 08:56:00,62.4,60.7,30.11,SSW,207,0.0,0.0,94,0.00,,---,0.00,VWS V14.01,2013-08-16 13:56:00,
2013-08-16 09:01:00,62.4,60.0,30.11,SW,224,0.0,1.0,92,0.00,,---,0.00,VWS V14.01,2013-08-16 14:01:00,
2013-08-16 09:06:00,62.7,60.0,30.11,SSW,213,0.0,1.0,91,0.00,,---,0.00,VWS V14.01,2013-08-16 14:06:00,
2013-08-16 09:16:00,63.9,60.6,30.11,SSW,197,0.0,0.0,89,0.00,,---,0.00,VWS V14.01,2013-08-16 14:16:00,
2013-08-16 09:26:00,65.3,61.0,30.10,South,172,0.0,1.0,86,0.00,,---,0.00,VWS V14.01,2013-08-16 14:26:00,
2013-08-16 09:36:00,66.3,61.3,30.10,South,184,0.0,0.0,84,0.00,,---,0.00,VWS V14.01,2013-08-16 14:36:00,
2013-08-16 09:46:00,66.6,59.9,30.10,South,173,0.0,0.0,79,0.00,,---,0.00,VWS V14.01,2013-08-16 14:46:00,
2013-08-16 09:51:00,66.9,60.2,30.10,East,83,0.0,0.0,79,0.00,,---,0.00,VWS V14.01,2013-08-16 14:51:00,
2013-08-16 09:56:00,67.1,60.0,30.10,East,85,0.0,0.0,78,0.00,,---,0.00,VWS V14.01,2013-08-16 14:56:00,
2013-08-16 10:01:00,67.6,60.1,30.10,SW,226,0.0,1.0,77,0.00,,---,0.00,VWS V14.01,2013-08-16 15:01:00,
2013-08-16 10:06:00,67.6,59.4,30.10,East,89,0.0,1.0,75,0.00,,---,0.00,VWS V14.01,2013-08-16 15:06:00,
2013-08-16 10:16:00,67.9,58.5,30.10,ESE,117,0.0,1.0,72,0.00,,---,0.00,VWS V14.01,2013-08-16 15:16:00,
2013-08-16 10:21:00,68.1,59.1,30.10,ESE,106,1.0,3.0,73,0.00,,---,0.00,VWS V14.01,2013-08-16 15:21:00,
2013-08-16 10:26:00,68.4,58.6,30.10,SSE,153,0.0,5.0,71,0.00,,---,0.00,VWS V14.01,2013-08-16 15:26:00,
2013-08-16 10:36:00,69.3,59.1,30.10,SSW,201,0.0,2.0,70,0.00,,---,0.00,VWS V14.01,2013-08-16 15:36:00,
2013-08-16 10:46:00,69.4,59.2,30.10,SE,127,0.0,1.0,70,0.00,,---,0.00,VWS V14.01,2013-08-16 15:46:00,
2013-08-16 10:51:00,69.6,58.2,30.10,ESE,104,0.0,2.0,67,0.00,,---,0.00,VWS V14.01,2013-08-16 15:51:00,
2013-08-16 11:01:00,70.4,58.5,30.10,South,174,0.0,1.0,66,0.00,,---,0.00,VWS V14.01,2013-08-16 16:01:00,
2013-08-16 11:06:00,70.1,58.2,30.10,SSW,203,1.0,2.0,66,0.00,,---,0.00,VWS V14.01,2013-08-16 16:06:00,
2013-08-16 11:11:00,69.9,58.0,30.10,SSW,198,0.0,2.0,66,0.00,,---,0.00,VWS V14.01,2013-08-16 16:11:00,
2013-08-16 11:16:00,70.3,58.4,30.10,ESE,123,0.0,2.0,66,0.00,,---,0.00,VWS V14.01,2013-08-16 16:16:00,
2013-08-16 11:21:00,70.6,57.8,30.10,ESE,117,7.0,7.0,64,0.00,,---,0.00,VWS V14.01,2013-08-16 16:21:00,
2013-08-16 11:31:00,70.9,57.2,30.10,SE,128,1.0,3.0,62,0.00,,---,0.00,VWS V14.01,2013-08-16 16:31:00,
2013-08-16 11:36:00,71.1,57.9,30.10,SW,228,0.0,1.0,63,0.00,,---,0.00,VWS V14.01,2013-08-16 16:36:00,
2013-08-16 11:41:00,70.9,57.2,30.10,ESE,112,0.0,4.0,62,0.00,,---,0.00,VWS V14.01,2013-08-16 16:41:00,
2013-08-16 11:46:00,71.1,57.4,30.10,South,179,0.0,2.0,62,0.00,,---,0.00,VWS V14.01,2013-08-16 16:46:00,
2013-08-16 11:51:00,71.5,57.4,30.10,SSE,157,0.0,6.0,61,0.00,,---,0.00,VWS V14.01,2013-08-16 16:51:00,
2013-08-16 11:56:00,71.6,57.5,30.10,South,181,0.0,2.0,61,0.00,,---,0.00,VWS V14.01,2013-08-16 16:56:00,
2013-08-16 12:01:00,72.0,57.8,30.10,SSE,168,0.0,6.0,61,0.00,,---,0.00,VWS V14.01,2013-08-16 17:01:00,
2013-08-16 12:06:00,72.5,57.4,30.10,SSE,152,1.0,2.0,59,0.00,,---,0.00,VWS V14.01,2013-08-16 17:06:00,
2013-08-16 12:11:00,72.5,56.9,30.10,ESE,117,0.0,9.0,58,0.00,,---,0.00,VWS V14.01,2013-08-16 17:11:00,
2013-08-16 12:16:00,72.5,56.4,30.10,West,271,0.0,7.0,57,0.00,,---,0.00,VWS V14.01,2013-08-16 17:16:00,
2013-08-16 12:26:00,72.7,56.6,30.09,ESE,103,1.0,6.0,57,0.00,,---,0.00,VWS V14.01,2013-08-16 17:26:00,
2013-08-16 12:31:00,72.8,56.2,30.09,SSE,164,1.0,6.0,56,0.00,,---,0.00,VWS V14.01,2013-08-16 17:31:00,
2013-08-16 12:36:00,73.0,57.4,30.09,ESE,121,1.0,2.0,58,0.00,,---,0.00,VWS V14.01,2013-08-16 17:36:00,
2013-08-16 12:41:00,73.2,56.1,30.09,South,177,0.0,3.0,55,0.00,,---,0.00,VWS V14.01,2013-08-16 17:41:00,
2013-08-16 12:46:00,73.2,55.6,30.09,ESE,120,0.0,3.0,54,0.00,,---,0.00,VWS V14.01,2013-08-16 17:46:00,
2013-08-16 12:51:00,73.2,55.1,30.09,ESE,115,0.0,4.0,53,0.00,,---,0.00,VWS V14.01,2013-08-16 17:51:00,
2013-08-16 12:56:00,73.3,56.7,30.09,ESE,113,1.0,4.0,56,0.00,,---,0.00,VWS V14.01,2013-08-16 17:56:00,
2013-08-16 13:01:00,73.7,56.0,30.09,South,183,0.0,3.0,54,0.00,,---,0.00,VWS V14.01,2013-08-16 18:01:00,
2013-08-16 13:11:00,73.7,55.5,30.08,South,184,0.0,1.0,53,0.00,,---,0.00,VWS V14.01,2013-08-16 18:11:00,
2013-08-16 13:16:00,73.7,55.5,30.08,South,171,0.0,1.0,53,0.00,,---,0.00,VWS V14.01,2013-08-16 18:16:00,
2013-08-16 13:21:00,73.7,53.9,30.08,ESE,111,0.0,9.0,50,0.00,,---,0.00,VWS V14.01,2013-08-16 18:21:00,
2013-08-16 13:26:00,73.9,55.2,30.08,ESE,116,0.0,7.0,52,0.00,,---,0.00,VWS V14.01,2013-08-16 18:26:00,
2013-08-16 13:31:00,74.0,54.7,30.08,West,261,0.0,1.0,51,0.00,,---,0.00,VWS V14.01,2013-08-16 18:31:00,
2013-08-16 13:36:00,74.2,56.5,30.08,SSW,211,4.0,4.0,54,0.00,,---,0.00,VWS V14.01,2013-08-16 18:36:00,
2013-08-16 13:41:00,74.6,56.4,30.08,ESE,108,0.0,4.0,53,0.00,,---,0.00,VWS V14.01,2013-08-16 18:41:00,
2013-08-16 13:46:00,74.7,54.8,30.08,SE,128,0.0,2.0,50,0.00,,---,0.00,VWS V14.01,2013-08-16 18:46:00,
2013-08-16 13:51:00,74.4,55.1,30.08,SE,130,2.0,3.0,51,0.00,,---,0.00,VWS V14.01,2013-08-16 18:51:00,
2013-08-16 13:56:00,74.4,55.1,30.08,SSW,194,0.0,4.0,51,0.00,,---,0.00,VWS V14.01,2013-08-16 18:56:00,
2013-08-16 14:01:00,74.4,55.1,30.07,SW,227,9.0,9.0,51,0.00,,---,0.00,VWS V14.01,2013-08-16 19:01:00,
2013-08-16 14:06:00,74.7,55.4,30.07,SSW,204,0.0,14.0,51,0.00,,---,0.00,VWS V14.01,2013-08-16 19:06:00,
2013-08-16 14:11:00,74.9,55.0,30.07,SSW,207,2.0,2.0,50,0.00,,---,0.00,VWS V14.01,2013-08-16 19:11:00,
2013-08-16 14:21:00,75.3,56.5,30.07,SSW,196,0.0,4.0,52,0.00,,---,0.00,VWS V14.01,2013-08-16 19:21:00,
2013-08-16 14:26:00,75.3,55.9,30.07,SSW,200,0.0,2.0,51,0.00,,---,0.00,VWS V14.01,2013-08-16 19:26:00,
2013-08-16 14:36:00,74.7,53.7,30.07,SSW,205,0.0,4.0,48,0.00,,---,0.00,VWS V14.01,2013-08-16 19:36:00,
2013-08-16 14:41:00,74.7,53.7,30.07,SSW,195,0.0,1.0,48,0.00,,---,0.00,VWS V14.01,2013-08-16 19:41:00,
2013-08-16 14:46:00,74.7,55.4,30.07,ESE,115,0.0,3.0,51,0.00,,---,0.00,VWS V14.01,2013-08-16 19:46:00,
2013-08-16 14:51:00,75.1,55.2,30.07,SE,130,0.0,3.0,50,0.00,,---,0.00,VWS V14.01,2013-08-16 19:51:00,
2013-08-16 14:56:00,75.1,55.2,30.07,SSW,208,0.0,5.0,50,0.00,,---,0.00,VWS V14.01,2013-08-16 19:56:00,
2013-08-16 15:01:00,75.4,55.5,30.07,SW,214,0.0,1.0,50,0.00,,---,0.00,VWS V14.01,2013-08-16 20:01:00,
2013-08-16 15:11:00,76.0,53.8,30.07,SSE,167,0.0,3.0,46,0.00,,---,0.00,VWS V14.01,2013-08-16 20:11:00,
2013-08-16 15:16:00,75.8,53.6,30.07,SE,134,0.0,3.0,46,0.00,,---,0.00,VWS V14.01,2013-08-16 20:16:00,
2013-08-16 15:21:00,75.1,55.2,30.07,SSW,192,0.0,1.0,50,0.00,,---,0.00,VWS V14.01,2013-08-16 20:21:00,
2013-08-16 15:26:00,75.1,54.7,30.07,ESE,116,0.0,3.0,49,0.00,,---,0.00,VWS V14.01,2013-08-16 20:26:00,
2013-08-16 15:31:00,75.3,54.3,30.07,ESE,108,0.0,2.0,48,0.00,,---,0.00,VWS V14.01,2013-08-16 20:31:00,
2013-08-16 15:41:00,75.8,54.7,30.06,ENE,74,0.0,1.0,48,0.00,,---,0.00,VWS V14.01,2013-08-16 20:41:00,
2013-08-16 15:46:00,76.1,53.8,30.06,ENE,71,0.0,0.0,46,0.00,,---,0.00,VWS V14.01,2013-08-16 20:46:00,
2013-08-16 15:51:00,76.5,55.4,30.06,SSW,195,0.0,4.0,48,0.00,,---,0.00,VWS V14.01,2013-08-16 20:51:00,
2013-08-16 16:01:00,75.3,53.1,30.06,ESE,117,0.0,0.0,46,0.00,,---,0.00,VWS V14.01,2013-08-16 21:01:00,
2013-08-16 16:06:00,75.3,54.3,30.06,East,83,0.0,6.0,48,0.00,,---,0.00,VWS V14.01,2013-08-16 21:06:00,
2013-08-16 16:11:00,76.1,55.0,30.06,ESE,111,0.0,1.0,48,0.00,,---,0.00,VWS V14.01,2013-08-16 21:11:00,
2013-08-16 16:16:00,76.8,56.2,30.06,ESE,112,0.0,1.0,49,0.00,,---,0.00,VWS V14.01,2013-08-16 21:16:00,
2013-08-16 16:26:00,76.3,54.0,30.06,ESE,110,0.0,7.0,46,0.00,,---,0.00,VWS V14.01,2013-08-16 21:26:00,
2013-08-16 16:36:00,76.0,54.9,30.06,SE,127,0.0,1.0,48,0.00,,---,0.00,VWS V14.01,2013-08-16 21:36:00,
2013-08-16 16:41:00,76.3,55.2,30.06,South,184,0.0,0.0,48,0.00,,---,0.00,VWS V14.01,2013-08-16 21:41:00,
2013-08-16 16:46:00,76.0,54.9,30.05,South,187,0.0,0.0,48,0.00,,---,0.00,VWS V14.01,2013-08-16 21:46:00,
2013-08-16 16:51:00,76.3,55.2,30.06,SSE,165,0.0,0.0,48,0.00,,---,0.00,VWS V14.01,2013-08-16 21:51:00,
2013-08-16 17:01:00,76.7,53.8,30.05,East,96,0.0,5.0,45,0.00,,---,0.00,VWS V14.01,2013-08-16 22:01:00,
2013-08-16 17:06:00,76.7,55.5,30.05,SSE,155,1.0,2.0,48,0.00,,---,0.00,VWS V14.01,2013-08-16 22:06:00,
2013-08-16 17:11:00,76.3,54.6,30.05,ESE,117,0.0,6.0,47,0.00,,---,0.00,VWS V14.01,2013-08-16 22:11:00,
2013-08-16 17:16:00,76.5,55.4,30.05,East,87,0.0,5.0,48,0.00,,---,0.00,VWS V14.01,2013-08-16 22:16:00,
2013-08-16 17:21:00,76.1,54.4,30.06,ESE,104,1.0,6.0,47,0.00,,---,0.00,VWS V14.01,2013-08-16 22:21:00,
2013-08-16 17:26:00,76.1,55.0,30.06,East,97,0.0,6.0,48,0.00,,---,0.00,VWS V14.01,2013-08-16 22:26:00,
2013-08-16 17:36:00,76.1,55.6,30.06,ESE,109,0.0,1.0,49,0.00,,---,0.00,VWS V14.01,2013-08-16 22:36:00,
2013-08-16 17:41:00,75.4,56.0,30.05,East,84,1.0,1.0,51,0.00,,---,0.00,VWS V14.01,2013-08-16 22:41:00,
2013-08-16 17:51:00,74.7,56.5,30.06,East,96,0.0,1.0,53,0.00,,---,0.00,VWS V14.01,2013-08-16 22:51:00,
2013-08-16 17:56:00,74.2,57.0,30.06,ESE,103,0.0,1.0,55,0.00,,---,0.00,VWS V14.01,2013-08-16 22:56:00,
2013-08-16 18:01:00,74.2,56.0,30.06,East,99,0.0,1.0,53,0.00,,---,0.00,VWS V14.01,2013-08-16 23:01:00,
2013-08-16 18:06:00,74.4,55.1,30.06,East,94,0.0,1.0,51,0.00,,---,0.00,VWS V14.01,2013-08-16 23:06:00,
2013-08-16 18:16:00,74.0,55.8,30.06,East,101,1.0,2.0,53,0.00,,---,0.00,VWS V14.01,2013-08-16 23:16:00,
2013-08-16 18:21:00,74.2,55.5,30.06,East,89,0.0,2.0,52,0.00,,---,0.00,VWS V14.01,2013-08-16 23:21:00,
2013-08-16 18:26:00,74.4,55.1,30.06,ESE,107,1.0,2.0,51,0.00,,---,0.00,VWS V14.01,2013-08-16 23:26:00,
2013-08-16 18:31:00,74.4,54.6,30.06,East,99,0.0,1.0,50,0.00,,---,0.00,VWS V14.01,2013-08-16 23:31:00,
2013-08-16 18:36:00,74.4,55.1,30.05,East,101,0.0,1.0,51,0.00,,---,0.00,VWS V14.01,2013-08-16 23:36:00,
2013-08-16 18:46:00,74.6,55.8,30.05,ESE,103,0.0,0.0,52,0.00,,---,0.00,VWS V14.01,2013-08-16 23:46:00,
2013-08-16 18:56:00,74.0,54.2,30.06,ESE,103,0.0,1.0,50,0.00,,---,0.00,VWS V14.01,2013-08-16 23:56:00,
2013-08-16 19:06:00,73.7,56.5,30.05,East,100,0.0,1.0,55,0.00,,---,0.00,VWS V14.01,2013-08-17 00:06:00,
2013-08-16 19:16:00,73.2,57.1,30.05,East,100,0.0,1.0,57,0.00,,---,0.00,VWS V14.01,2013-08-17 00:16:00,
2013-08-16 19:21:00,72.8,57.2,30.06,East,100,0.0,0.0,58,0.00,,---,0.00,VWS V14.01,2013-08-17 00:21:00,
2013-08-16 19:26:00,72.7,57.1,30.05,East,100,0.0,1.0,58,0.00,,---,0.00,VWS V14.01,2013-08-17 00:26:00,
2013-08-16 19:31:00,72.3,57.2,30.06,East,100,0.0,0.0,59,0.00,,---,0.00,VWS V14.01,2013-08-17 00:31:00,
2013-08-16 19:36:00,72.1,57.9,30.06,East,98,0.0,1.0,61,0.00,,---,0.00,VWS V14.01,2013-08-17 00:36:00,
2013-08-16 19:46:00,71.6,57.9,30.06,East,97,0.0,0.0,62,0.00,,---,0.00,VWS V14.01,2013-08-17 00:46:00,
2013-08-16 19:51:00,71.3,58.1,30.06,East,90,0.0,0.0,63,0.00,,---,0.00,VWS V14.01,2013-08-17 00:51:00,
2013-08-16 19:56:00,70.8,57.6,30.06,East,90,0.0,0.0,63,0.00,,---,0.00,VWS V14.01,2013-08-17 00:56:00,
2013-08-16 20:01:00,70.3,58.0,30.06,East,88,0.0,0.0,65,0.00,,---,0.00,VWS V14.01,2013-08-17 01:01:00,
2013-08-16 20:06:00,69.8,57.9,30.05,East,88,0.0,0.0,66,0.00,,---,0.00,VWS V14.01,2013-08-17 01:06:00,
2013-08-16 20:11:00,69.1,57.7,30.05,East,88,0.0,0.0,67,0.00,,---,0.00,VWS V14.01,2013-08-17 01:11:00,
2013-08-16 20:21:00,68.3,57.3,30.06,East,90,0.0,0.0,68,0.00,,---,0.00,VWS V14.01,2013-08-17 01:21:00,
2013-08-16 20:26:00,67.9,57.4,30.05,East,90,0.0,0.0,69,0.00,,---,0.00,VWS V14.01,2013-08-17 01:26:00,
2013-08-16 20:31:00,67.6,57.5,30.06,East,90,0.0,0.0,70,0.00,,---,0.00,VWS V14.01,2013-08-17 01:31:00,
2013-08-16 20:41:00,66.4,57.1,30.06,East,90,0.0,0.0,72,0.00,,---,0.00,VWS V14.01,2013-08-17 01:41:00,
2013-08-16 20:46:00,66.1,56.8,30.06,East,90,0.0,0.0,72,0.00,,---,0.00,VWS V14.01,2013-08-17 01:46:00,
2013-08-16 20:51:00,65.6,56.3,30.06,East,90,0.0,0.0,72,0.00,,---,0.00,VWS V14.01,2013-08-17 01:51:00,
2013-08-16 21:01:00,65.2,56.3,30.07,East,86,0.0,1.0,73,0.00,,---,0.00,VWS V14.01,2013-08-17 02:01:00,
2013-08-16 21:06:00,64.8,56.3,30.06,East,86,0.0,0.0,74,0.00,,---,0.00,VWS V14.01,2013-08-17 02:06:00,
2013-08-16 21:11:00,64.0,55.9,30.06,East,86,0.0,0.0,75,0.00,,---,0.00,VWS V14.01,2013-08-17 02:11:00,
2013-08-16 21:16:00,63.2,55.5,30.06,East,86,0.0,0.0,76,0.00,,---,0.00,VWS V14.01,2013-08-17 02:16:00,
2013-08-16 21:21:00,62.6,55.7,30.07,East,86,0.0,0.0,78,0.00,,---,0.00,VWS V14.01,2013-08-17 02:21:00,
2013-08-16 21:31:00,62.6,56.0,30.07,East,86,0.0,0.0,79,0.00,,---,0.00,VWS V14.01,2013-08-17 02:31:00,
2013-08-16 21:36:00,62.3,55.4,30.07,East,86,0.0,0.0,78,0.00,,---,0.00,VWS V14.01,2013-08-17 02:36:00,
2013-08-16 21:41:00,62.3,55.7,30.07,East,86,0.0,1.0,79,0.00,,---,0.00,VWS V14.01,2013-08-17 02:41:00,
2013-08-16 21:46:00,62.4,55.5,30.07,East,86,0.0,0.0,78,0.00,,---,0.00,VWS V14.01,2013-08-17 02:46:00,
2013-08-16 21:51:00,62.6,55.7,30.07,East,86,0.0,0.0,78,0.00,,---,0.00,VWS V14.01,2013-08-17 02:51:00,
2013-08-16 21:56:00,62.4,55.5,30.07,East,86,0.0,0.0,78,0.00,,---,0.00,VWS V14.01,2013-08-17 02:56:00,
2013-08-16 22:01:00,61.8,54.9,30.07,East,86,0.0,0.0,78,0.00,,---,0.00,VWS V14.01,2013-08-17 03:01:00,
2013-08-16 22:06:00,61.3,54.7,30.07,East,86,0.0,0.0,79,0.00,,---,0.00,VWS V14.01,2013-08-17 03:06:00,
2013-08-16 22:11:00,60.9,54.3,30.08,East,86,0.0,0.0,79,0.00,,---,0.00,VWS V14.01,2013-08-17 03:11:00,
2013-08-16 22:16:00,60.7,54.5,30.08,East,86,0.0,0.0,80,0.00,,---,0.00,VWS V14.01,2013-08-17 03:16:00,
2013-08-16 22:21:00,60.9,54.7,30.07,East,86,0.0,0.0,80,0.00,,---,0.00,VWS V14.01,2013-08-17 03:21:00,
2013-08-16 22:26:00,60.7,54.5,30.08,East,86,0.0,0.0,80,0.00,,---,0.00,VWS V14.01,2013-08-17 03:26:00,
2013-08-16 22:31:00,60.9,55.0,30.08,East,86,0.0,0.0,81,0.00,,---,0.00,VWS V14.01,2013-08-17 03:31:00,
2013-08-16 22:36:00,60.9,54.7,30.08,East,86,0.0,0.0,80,0.00,,---,0.00,VWS V14.01,2013-08-17 03:36:00,
2013-08-16 22:46:00,60.4,54.2,30.08,East,86,0.0,0.0,80,0.00,,---,0.00,VWS V14.01,2013-08-17 03:46:00,
2013-08-16 22:51:00,60.1,54.3,30.08,East,86,0.0,0.0,81,0.00,,---,0.00,VWS V14.01,2013-08-17 03:51:00,
2013-08-16 22:56:00,59.8,54.0,30.08,East,86,0.0,0.0,81,0.00,,---,0.00,VWS V14.01,2013-08-17 03:56:00,
2013-08-16 23:01:00,59.8,54.3,30.08,East,86,0.0,0.0,82,0.00,,---,0.00,VWS V14.01,2013-08-17 04:01:00,
2013-08-16 23:06:00,59.6,54.1,30.08,East,86,0.0,0.0,82,0.00,,---,0.00,VWS V14.01,2013-08-17 04:06:00,
2013-08-16 23:11:00,59.3,53.8,30.08,East,86,0.0,0.0,82,0.00,,---,0.00,VWS V14.01,2013-08-17 04:11:00,
2013-08-16 23:16:00,59.2,53.7,30.08,East,86,0.0,0.0,82,0.00,,---,0.00,VWS V14.01,2013-08-17 04:16:00,
2013-08-16 23:21:00,58.9,53.4,30.08,East,86,0.0,0.0,82,0.00,,---,0.00,VWS V14.01,2013-08-17 04:21:00,
2013-08-16 23:26:00,58.6,53.1,30.08,East,86,0.0,0.0,82,0.00,,---,0.00,VWS V14.01,2013-08-17 04:26:00,
2013-08-16 23:31:00,58.1,52.6,30.08,East,86,0.0,0.0,82,0.00,,---,0.00,VWS V14.01,2013-08-17 04:31:00,
2013-08-16 23:41:00,57.3,51.9,30.08,East,86,0.0,0.0,82,0.00,,---,0.00,VWS V14.01,2013-08-17 04:41:00,
2013-08-16 23:51:00,57.5,53.0,30.08,East,86,0.0,0.0,85,0.00,,---,0.00,VWS V14.01,2013-08-17 04:51:00,